createdAt,value
2022-08-30T00:01:25.584Z,100.00
2022-08-30T00:03:55.715Z,100.00
2022-08-30T00:06:26.750Z,100.00
2022-08-30T00:08:55.308Z,100.00
2022-08-30T00:11:26.270Z,100.00
2022-08-30T00:13:56.044Z,100.00
2022-08-30T00:16:24.676Z,100.00
2022-08-30T00:18:52.781Z,100.00
2022-08-30T00:21:21.121Z,100.00
2022-08-30T00:23:50.511Z,100.00
2022-08-30T00:26:18.606Z,100.00
2022-08-30T00:28:46.725Z,100.00
2022-08-30T00:31:15.563Z,100.00
2022-08-30T00:33:44.146Z,100.00
2022-08-30T00:36:12.250Z,100.00
2022-08-30T00:38:40.301Z,100.00
2022-08-30T00:41:09.769Z,100.00
2022-08-30T00:43:38.096Z,100.00
2022-08-30T00:46:08.513Z,100.00
2022-08-30T00:48:40.947Z,100.00
2022-08-30T00:51:11.880Z,100.00
2022-08-30T00:53:43.641Z,100.00
2022-08-30T00:56:13.588Z,100.00
2022-08-30T00:58:46.170Z,100.00
2022-08-30T01:01:14.691Z,100.00
2022-08-30T01:03:44.360Z,100.00
2022-08-30T01:06:15.580Z,100.00
2022-08-30T01:08:44.050Z,100.00
2022-08-30T01:11:14.609Z,100.00
2022-08-30T01:13:43.126Z,100.00
2022-08-30T01:16:11.681Z,100.00
2022-08-30T01:18:40.050Z,100.00
2022-08-30T01:21:16.897Z,100.00
2022-08-30T01:23:50.244Z,100.00
2022-08-30T01:26:21.965Z,100.00
2022-08-30T01:28:55.967Z,100.00
2022-08-30T01:31:24.280Z,100.00
2022-08-30T01:33:52.652Z,100.00
2022-08-30T01:36:21.590Z,100.00
2022-08-30T01:38:53.663Z,100.00
2022-08-30T01:41:23.723Z,100.00
2022-08-30T01:43:53.967Z,100.00
2022-08-30T01:46:24.644Z,100.00
2022-08-30T01:48:54.556Z,100.00
2022-08-30T01:51:24.625Z,100.00
2022-08-30T01:53:54.401Z,100.00
2022-08-30T01:56:22.983Z,100.00
2022-08-30T01:58:51.920Z,100.00
2022-08-30T02:01:24.213Z,100.00
2022-08-30T02:03:54.918Z,100.00
2022-08-30T02:06:23.839Z,100.00
2022-08-30T02:08:51.869Z,100.00
2022-08-30T02:11:21.461Z,100.00
2022-08-30T02:13:51.973Z,100.00
2022-08-30T02:16:23.152Z,100.00
2022-08-30T02:18:51.893Z,100.00
2022-08-30T02:21:20.132Z,100.00
2022-08-30T02:23:48.208Z,100.00
2022-08-30T02:26:16.845Z,100.00
2022-08-30T02:28:49.692Z,100.00
2022-08-30T02:31:20.448Z,100.00
2022-08-30T02:33:50.951Z,100.00
2022-08-30T02:36:19.310Z,100.00
2022-08-30T02:38:47.777Z,100.00
2022-08-30T02:41:15.887Z,100.00
2022-08-30T02:43:44.129Z,100.00
2022-08-30T02:46:14.329Z,100.00
2022-08-30T02:48:42.533Z,100.00
2022-08-30T02:51:13.398Z,100.00
2022-08-30T02:53:43.713Z,100.00
2022-08-30T02:56:13.299Z,100.00
2022-08-30T02:58:42.869Z,100.00
2022-08-30T03:01:14.114Z,100.00
2022-08-30T03:03:43.649Z,100.00
2022-08-30T03:06:11.885Z,100.00
2022-08-30T03:08:40.220Z,100.00
2022-08-30T03:11:08.733Z,100.00
2022-08-30T03:13:36.979Z,100.00
2022-08-30T03:16:05.118Z,100.00
2022-08-30T03:18:34.761Z,100.00
2022-08-30T03:21:02.802Z,100.00
2022-08-30T03:23:31.502Z,100.00
2022-08-30T03:25:59.517Z,100.00
2022-08-30T03:28:27.547Z,100.00
2022-08-30T03:30:56.635Z,100.00
2022-08-30T03:33:24.818Z,100.00
2022-08-30T03:35:54.153Z,100.00
2022-08-30T03:38:22.208Z,100.00
2022-08-30T03:40:50.217Z,100.00
2022-08-30T03:43:18.948Z,100.00
2022-08-30T03:45:47.684Z,100.00
2022-08-30T03:48:15.978Z,100.00
2022-08-30T03:50:44.069Z,100.00
2022-08-30T03:53:13.473Z,100.00
2022-08-30T03:55:41.528Z,100.00
2022-08-30T03:58:09.821Z,100.00
2022-08-30T04:00:38.106Z,100.00
2022-08-30T04:03:06.250Z,100.00
2022-08-30T04:05:34.287Z,100.00
2022-08-30T04:08:02.283Z,100.00
2022-08-30T04:10:32.352Z,100.00
2022-08-30T04:13:00.393Z,100.00
2022-08-30T04:15:28.396Z,100.00
2022-08-30T04:17:56.452Z,100.00
2022-08-30T04:20:25.022Z,100.00
2022-08-30T04:22:53.115Z,100.00
2022-08-30T04:25:21.273Z,100.00
2022-08-30T04:27:51.150Z,100.00
2022-08-30T04:30:19.610Z,100.00
2022-08-30T04:32:47.779Z,100.00
2022-08-30T04:35:15.911Z,100.00
2022-08-30T04:37:44.078Z,100.00
2022-08-30T04:40:14.038Z,100.00
2022-08-30T04:42:43.608Z,100.00
2022-08-30T04:45:15.892Z,100.00
2022-08-30T04:47:44.627Z,100.00
2022-08-30T04:50:15.458Z,100.00
2022-08-30T04:52:44.365Z,100.00
2022-08-30T04:55:16.817Z,100.00
2022-08-30T04:57:48.157Z,100.00
2022-08-30T05:00:18.116Z,100.00
2022-08-30T05:02:46.165Z,100.00
2022-08-30T05:05:32.050Z,100.00
2022-08-30T05:08:00.350Z,100.00
2022-08-30T05:10:28.722Z,100.00
2022-08-30T05:12:56.981Z,100.00
2022-08-30T05:15:26.411Z,100.00
2022-08-30T05:17:54.449Z,100.00
2022-08-30T05:20:22.811Z,100.00
2022-08-30T05:22:53.755Z,100.00
2022-08-30T05:25:24.431Z,100.00
2022-08-30T05:27:52.856Z,100.00
2022-08-30T05:30:22.395Z,100.00
2022-08-30T05:32:52.810Z,100.00
2022-08-30T05:35:25.597Z,100.00
2022-08-30T05:37:54.177Z,100.00
2022-08-30T05:40:22.805Z,100.00
2022-08-30T05:42:50.856Z,100.00
2022-08-30T05:45:19.154Z,100.00
2022-08-30T05:47:47.843Z,100.00
2022-08-30T05:50:17.409Z,100.00
2022-08-30T05:52:46.097Z,100.00
2022-08-30T05:55:14.446Z,100.00
2022-08-30T05:57:42.788Z,100.00
2022-08-30T06:00:14.372Z,100.00
2022-08-30T06:02:43.233Z,100.00
2022-08-30T06:05:14.417Z,100.00
2022-08-30T06:07:44.627Z,100.00
2022-08-30T06:10:13.914Z,100.00
2022-08-30T06:12:44.879Z,100.00
2022-08-30T06:15:13.617Z,100.00
2022-08-30T06:17:41.650Z,100.00
2022-08-30T06:20:10.896Z,100.00
2022-08-30T06:22:39.456Z,100.00
2022-08-30T06:25:10.450Z,100.00
2022-08-30T06:27:38.528Z,100.00
2022-08-30T06:30:08.558Z,100.00
2022-08-30T06:32:36.679Z,100.00
2022-08-30T06:35:05.158Z,100.00
2022-08-30T06:37:33.816Z,100.00
2022-08-30T06:40:03.194Z,100.00
2022-08-30T06:42:34.854Z,100.00
2022-08-30T06:45:03.424Z,100.00
2022-08-30T06:47:40.228Z,100.00
2022-08-30T06:50:11.747Z,100.00
2022-08-30T06:52:40.721Z,100.00
2022-08-30T06:55:09.536Z,100.00
2022-08-30T06:57:39.120Z,100.00
2022-08-30T07:00:10.017Z,100.00
2022-08-30T07:02:38.567Z,100.00
2022-08-30T07:05:07.892Z,100.00
2022-08-30T07:07:36.725Z,100.00
2022-08-30T07:10:05.765Z,100.00
2022-08-30T07:12:33.941Z,100.00
2022-08-30T07:15:06.011Z,100.00
2022-08-30T07:17:48.867Z,100.00
2022-08-30T07:20:18.558Z,100.00
2022-08-30T07:22:47.280Z,100.00
2022-08-30T07:25:16.644Z,100.00
2022-08-30T07:27:48.071Z,100.00
2022-08-30T07:30:17.428Z,100.00
2022-08-30T07:32:45.849Z,100.00
2022-08-30T07:35:13.945Z,100.00
2022-08-30T07:37:42.107Z,100.00
2022-08-30T07:40:11.650Z,100.00
2022-08-30T07:42:40.995Z,100.00
2022-08-30T07:45:10.700Z,100.00
2022-08-30T07:47:40.446Z,100.00
2022-08-30T07:50:09.452Z,100.00
2022-08-30T07:55:11.126Z,100.00
2022-08-30T07:57:39.160Z,100.00
2022-08-30T08:00:08.250Z,100.00
2022-08-30T08:02:37.216Z,100.00
2022-08-30T08:05:08.180Z,100.00
2022-08-30T08:07:36.696Z,100.00
2022-08-30T08:10:06.006Z,100.00
2022-08-30T08:12:34.579Z,100.00
2022-08-30T08:15:05.435Z,100.00
2022-08-30T08:17:36.988Z,100.00
2022-08-30T08:20:07.426Z,100.00
2022-08-30T08:22:39.749Z,100.00
2022-08-30T08:25:08.835Z,100.00
2022-08-30T08:27:36.922Z,100.00
2022-08-30T08:30:05.932Z,100.00
2022-08-30T08:32:34.016Z,100.00
2022-08-30T08:35:02.211Z,100.00
2022-08-30T08:37:31.786Z,100.00
2022-08-30T08:39:59.878Z,100.00
2022-08-30T08:42:41.611Z,100.00
2022-08-30T08:45:14.297Z,100.00
2022-08-30T08:47:51.226Z,100.00
2022-08-30T08:50:21.758Z,100.00
2022-08-30T08:53:25.071Z,100.00
2022-08-30T08:55:59.025Z,100.00
2022-08-30T08:58:29.365Z,100.00
2022-08-30T09:00:59.109Z,100.00
2022-08-30T09:03:30.678Z,100.00
2022-08-30T09:05:59.168Z,100.00
2022-08-30T09:08:28.554Z,100.00
2022-08-30T09:11:01.605Z,100.00
2022-08-30T09:13:29.649Z,100.00
2022-08-30T09:16:00.164Z,100.00
2022-08-30T09:18:45.541Z,100.00
2022-08-30T09:21:15.511Z,100.00
2022-08-30T09:23:52.729Z,100.00
2022-08-30T09:26:30.247Z,100.00
2022-08-30T09:28:59.208Z,100.00
2022-08-30T09:31:30.775Z,100.00
2022-08-30T09:34:03.316Z,100.00
2022-08-30T09:36:41.695Z,100.00
2022-08-30T09:39:18.017Z,100.00
2022-08-30T09:41:49.234Z,100.00
2022-08-30T09:44:20.540Z,100.00
2022-08-30T09:46:52.236Z,100.00
2022-08-30T09:49:30.857Z,100.00
2022-08-30T09:52:13.149Z,100.00
2022-08-30T09:54:54.880Z,100.00
2022-08-30T09:57:34.296Z,100.00
2022-08-30T10:00:06.769Z,100.00
2022-08-30T10:02:46.949Z,100.00
2022-08-30T10:05:23.261Z,100.00
2022-08-30T10:08:02.970Z,100.00
2022-08-30T10:10:45.684Z,100.00
2022-08-30T10:13:39.566Z,100.00
2022-08-30T10:16:22.781Z,100.00
2022-08-30T10:18:59.137Z,100.00
2022-08-30T10:21:33.101Z,100.00
2022-08-30T10:24:05.463Z,100.00
2022-08-30T10:26:39.212Z,100.00
2022-08-30T10:29:12.412Z,100.00
2022-08-30T10:31:44.545Z,100.00
2022-08-30T10:34:18.077Z,100.00
2022-08-30T10:36:52.006Z,100.00
2022-08-30T10:39:26.344Z,100.00
2022-08-30T10:42:08.465Z,100.00
2022-08-30T10:44:41.419Z,100.00
2022-08-30T10:47:26.751Z,100.00
2022-08-30T10:50:04.003Z,100.00
2022-08-30T10:52:38.385Z,100.00
2022-08-30T10:55:11.214Z,100.00
2022-08-30T10:57:42.979Z,100.00
2022-08-30T11:00:15.141Z,100.00
2022-08-30T11:03:32.529Z,100.00
2022-08-30T11:06:15.220Z,100.00
2022-08-30T11:08:59.372Z,100.00
2022-08-30T11:11:38.440Z,100.00
2022-08-30T11:14:12.810Z,100.00
2022-08-30T11:16:43.955Z,100.00
2022-08-30T11:19:20.588Z,100.00
2022-08-30T11:21:50.846Z,100.00
2022-08-30T11:24:21.950Z,100.00
2022-08-30T11:27:00.949Z,100.00
2022-08-30T11:29:37.159Z,100.00
2022-08-30T11:32:40.363Z,100.00
2022-08-30T11:35:11.264Z,100.00
2022-08-30T11:37:42.968Z,100.00
2022-08-30T11:40:49.257Z,100.00
2022-08-30T11:43:51.276Z,100.00
2022-08-30T11:46:37.463Z,100.00
2022-08-30T11:49:31.596Z,100.00
2022-08-30T11:52:28.100Z,100.00
2022-08-30T11:55:34.686Z,100.00
2022-08-30T11:58:18.428Z,100.00
2022-08-30T12:00:52.634Z,100.00
2022-08-30T12:03:35.072Z,100.00
2022-08-30T12:06:05.099Z,100.00
2022-08-30T12:09:02.630Z,100.00
2022-08-30T12:11:58.582Z,100.00
2022-08-30T12:14:47.533Z,100.00
2022-08-30T12:17:52.184Z,100.00
2022-08-30T12:20:39.053Z,100.00
2022-08-30T12:23:20.183Z,100.00
2022-08-30T12:25:48.966Z,100.00
2022-08-30T12:28:24.010Z,100.00
2022-08-30T12:30:54.424Z,100.00
2022-08-30T12:33:36.597Z,100.00
2022-08-30T12:36:14.281Z,100.00
2022-08-30T12:38:42.880Z,100.00
2022-08-30T12:41:20.982Z,98.27
2022-08-30T12:43:51.255Z,88.63
2022-08-30T12:46:22.697Z,72.79
2022-08-30T12:48:51.318Z,62.82
2022-08-30T12:51:41.142Z,59.82
2022-08-30T12:54:16.949Z,55.98
2022-08-30T12:56:54.629Z,54.99
2022-08-30T12:59:56.785Z,49.67
2022-08-30T13:02:42.839Z,45.86
2022-08-30T13:05:32.146Z,43.14
2022-08-30T13:08:11.768Z,40.89
2022-08-30T13:10:51.295Z,40.46
2022-08-30T13:13:34.066Z,43.16
2022-08-30T13:16:22.012Z,44.29
2022-08-30T13:18:53.290Z,49.47
2022-08-30T13:21:30.771Z,57.67
2022-08-30T13:24:01.768Z,63.25
2022-08-30T13:26:33.819Z,68.74
2022-08-30T13:29:04.873Z,68.09
2022-08-30T13:31:38.763Z,58.73
2022-08-30T13:34:08.169Z,52.22
2022-08-30T13:36:38.883Z,41.00
2022-08-30T13:39:13.344Z,45.02
2022-08-30T13:41:41.544Z,46.12
2022-08-30T13:44:11.947Z,42.90
2022-08-30T13:46:44.050Z,42.76
2022-08-30T13:52:20.289Z,38.15
2022-08-30T13:54:50.390Z,38.19
2022-08-30T14:00:12.712Z,36.29
2022-08-30T14:02:47.608Z,40.65
2022-08-30T14:05:46.903Z,45.96
2022-08-30T14:08:44.350Z,53.12
2022-08-30T14:10:58.362Z,53.05
2022-08-30T14:13:29.173Z,55.29
2022-08-30T14:18:46.812Z,64.08
2022-08-30T14:21:16.293Z,63.66
2022-08-30T14:23:44.400Z,56.39
2022-08-30T14:26:17.263Z,49.26
2022-08-30T14:28:45.884Z,43.79
2022-08-30T14:31:20.361Z,40.10
2022-08-30T14:33:48.789Z,39.96
2022-08-30T14:36:18.888Z,41.46
2022-08-30T14:38:47.944Z,39.67
2022-08-30T14:41:17.072Z,39.00
2022-08-30T14:43:45.108Z,38.45
2022-08-30T14:46:13.661Z,39.53
2022-08-30T14:48:41.782Z,36.86
2022-08-30T14:51:15.340Z,39.45
2022-08-30T14:53:45.771Z,42.88
2022-08-30T14:56:16.857Z,46.37
2022-08-30T14:58:50.769Z,47.18
2022-08-30T15:01:20.085Z,45.68
2022-08-30T15:03:51.219Z,43.79
2022-08-30T15:06:19.550Z,41.93
2022-08-30T15:08:49.434Z,39.50
2022-08-30T15:11:21.120Z,39.17
2022-08-30T15:13:49.704Z,38.71
2022-08-30T15:16:24.698Z,39.58
2022-08-30T15:18:53.537Z,41.17
2022-08-30T15:21:25.957Z,40.54
2022-08-30T15:23:55.757Z,39.60
2022-08-30T15:26:24.656Z,39.65
2022-08-30T15:28:53.495Z,40.38
2022-08-30T15:31:24.091Z,43.82
2022-08-30T15:33:52.392Z,46.94
2022-08-30T15:36:20.965Z,51.45
2022-08-30T15:38:48.991Z,51.22
2022-08-30T15:41:18.393Z,46.80
2022-08-30T15:43:46.589Z,45.07
2022-08-30T15:46:22.601Z,43.49
2022-08-30T15:48:52.898Z,41.11
2022-08-30T15:51:21.426Z,40.53
2022-08-30T15:53:50.070Z,39.43
2022-08-30T15:56:20.066Z,37.20
2022-08-30T15:58:48.515Z,35.84
2022-08-30T16:01:17.348Z,35.02
2022-08-30T16:03:48.214Z,35.88
2022-08-30T16:06:19.144Z,34.29
2022-08-30T16:08:47.746Z,35.01
2022-08-30T16:11:18.745Z,34.74
2022-08-30T16:13:50.529Z,34.26
2022-08-30T16:16:20.794Z,35.02
2022-08-30T16:18:54.271Z,35.24
2022-08-30T16:21:25.306Z,35.01
2022-08-30T16:23:56.200Z,34.01
2022-08-30T16:26:25.621Z,33.52
2022-08-30T16:28:55.326Z,34.37
2022-08-30T16:31:24.351Z,32.55
2022-08-30T16:33:54.204Z,33.18
2022-08-30T16:36:22.664Z,32.77
2022-08-30T16:38:53.565Z,33.13
2022-08-30T16:41:25.619Z,32.84
2022-08-30T16:43:55.417Z,32.13
2022-08-30T16:46:27.517Z,34.56
2022-08-30T16:48:58.282Z,34.49
2022-08-30T16:51:29.184Z,34.65
2022-08-30T16:53:58.517Z,34.78
2022-08-30T16:56:29.566Z,35.84
2022-08-30T16:59:02.917Z,36.41
2022-08-30T17:04:20.731Z,39.38
2022-08-30T17:06:50.038Z,41.08
2022-08-30T17:09:18.693Z,41.65
2022-08-30T17:11:47.517Z,42.46
2022-08-30T17:14:20.140Z,44.15
2022-08-30T17:16:51.600Z,45.41
2022-08-30T17:19:26.271Z,45.86
2022-08-30T17:21:57.996Z,44.19
2022-08-30T17:24:26.857Z,43.59
2022-08-30T17:26:55.547Z,44.73
2022-08-30T17:29:25.021Z,44.39
2022-08-30T17:31:54.007Z,44.89
2022-08-30T17:34:23.095Z,46.36
2022-08-30T17:36:54.510Z,45.36
2022-08-30T17:39:23.450Z,45.08
2022-08-30T17:41:52.671Z,45.58
2022-08-30T17:47:13.318Z,46.81
2022-08-30T17:49:42.062Z,48.31
2022-08-30T17:54:58.970Z,49.20
2022-08-30T17:57:27.031Z,49.55
2022-08-30T17:59:58.200Z,49.94
2022-08-30T18:02:29.768Z,51.31
2022-08-30T18:05:00.095Z,51.97
2022-08-30T18:07:28.278Z,52.49
2022-08-30T18:09:56.262Z,53.54
2022-08-30T18:12:24.529Z,53.18
2022-08-30T18:14:54.974Z,54.28
2022-08-30T18:17:23.059Z,55.76
2022-08-30T18:19:53.645Z,57.89
2022-08-30T18:22:21.642Z,59.26
2022-08-30T18:24:49.914Z,60.64
2022-08-30T18:27:18.013Z,62.40
2022-08-30T18:29:47.105Z,63.10
2022-08-30T18:32:15.333Z,64.45
2022-08-30T18:34:43.764Z,66.63
2022-08-30T18:37:13.752Z,67.77
2022-08-30T18:39:44.988Z,68.80
2022-08-30T18:42:13.000Z,70.46
2022-08-30T18:44:43.866Z,72.15
2022-08-30T18:47:12.212Z,74.28
2022-08-30T18:49:40.498Z,76.66
2022-08-30T18:52:10.848Z,78.41
2022-08-30T18:54:42.332Z,79.86
2022-08-30T18:57:10.819Z,81.80
2022-08-30T18:59:39.507Z,84.77
2022-08-30T19:02:14.283Z,86.19
2022-08-30T19:04:44.111Z,89.60
2022-08-30T19:07:14.994Z,89.91
2022-08-30T19:09:45.202Z,94.70
2022-08-30T19:12:13.778Z,93.21
2022-08-30T19:14:43.016Z,94.96
2022-08-30T19:17:11.449Z,95.60
2022-08-30T19:19:48.542Z,100.00
2022-08-30T19:22:19.050Z,100.00
2022-08-30T19:24:49.970Z,100.00
2022-08-30T19:27:21.602Z,100.00
2022-08-30T19:30:06.710Z,100.00
2022-08-30T19:32:34.835Z,100.00
2022-08-30T19:35:02.948Z,100.00
2022-08-30T19:37:31.215Z,100.00
2022-08-30T19:40:06.216Z,100.00
2022-08-30T19:42:38.461Z,100.00
2022-08-30T19:45:13.521Z,100.00
2022-08-30T19:47:41.589Z,100.00
2022-08-30T19:50:12.796Z,100.00
2022-08-30T19:52:41.134Z,100.00
2022-08-30T19:55:12.420Z,100.00
2022-08-30T19:57:40.703Z,100.00
2022-08-30T20:00:12.575Z,100.00
2022-08-30T20:02:45.347Z,100.00
2022-08-30T20:05:18.948Z,100.00
2022-08-30T20:07:47.202Z,100.00
2022-08-30T20:10:25.993Z,100.00
2022-08-30T20:12:54.386Z,100.00
2022-08-30T20:15:22.938Z,100.00
2022-08-30T20:18:05.403Z,100.00
2022-08-30T20:20:36.272Z,100.00
2022-08-30T20:23:05.608Z,100.00
2022-08-30T20:24:23.219Z,36.59
2022-08-30T20:24:26.038Z,45.84
2022-08-30T20:24:26.504Z,49.56
2022-08-30T20:25:36.862Z,100.00
2022-08-30T20:28:05.094Z,100.00
2022-08-30T20:30:33.465Z,100.00
2022-08-30T20:33:06.909Z,100.00
2022-08-30T20:35:38.310Z,100.00
2022-08-30T20:38:06.959Z,100.00
2022-08-30T20:40:38.940Z,100.00
2022-08-30T20:43:08.041Z,100.00
2022-08-30T20:45:36.104Z,100.00
2022-08-30T20:48:05.705Z,100.00
2022-08-30T20:50:33.761Z,100.00
2022-08-30T20:53:01.901Z,100.00
2022-08-30T20:55:30.096Z,100.00
2022-08-30T20:57:59.769Z,100.00
2022-08-30T21:00:28.037Z,100.00
2022-08-30T21:02:56.152Z,100.00
2022-08-30T21:05:24.259Z,100.00
2022-08-30T21:07:52.839Z,100.00
2022-08-30T21:10:23.476Z,100.00
2022-08-30T21:12:52.260Z,100.00
2022-08-30T21:18:01.218Z,100.00
2022-08-30T21:20:30.010Z,100.00
2022-08-30T21:22:58.020Z,100.00
2022-08-30T21:25:26.082Z,100.00
2022-08-30T21:27:54.855Z,100.00
2022-08-30T21:30:24.696Z,100.00
2022-08-30T21:32:52.778Z,100.00
2022-08-30T21:35:50.118Z,100.00
2022-08-30T21:38:19.106Z,100.00
2022-08-30T21:40:48.395Z,100.00
2022-08-30T21:43:17.163Z,100.00
2022-08-30T21:45:47.220Z,100.00
2022-08-30T21:48:16.550Z,100.00
2022-08-30T21:50:45.676Z,100.00
2022-08-30T21:53:15.218Z,100.00
2022-08-30T21:55:43.866Z,100.00
2022-08-30T21:58:12.211Z,100.00
2022-08-30T22:00:40.430Z,100.00
2022-08-30T22:03:09.829Z,100.00
2022-08-30T22:05:37.827Z,100.00
2022-08-30T22:08:05.865Z,100.00
2022-08-30T22:10:33.892Z,100.00
2022-08-30T22:13:02.032Z,100.00
2022-08-30T22:15:32.044Z,100.00
2022-08-30T22:18:00.612Z,100.00
2022-08-30T22:20:30.531Z,100.00
2022-08-30T22:22:58.814Z,100.00
2022-08-30T22:25:26.886Z,100.00
2022-08-30T22:27:54.906Z,100.00
2022-08-30T22:30:22.904Z,100.00
2022-08-30T22:32:51.418Z,100.00
2022-08-30T22:35:20.852Z,100.00
2022-08-30T22:37:53.586Z,100.00
2022-08-30T22:40:22.457Z,100.00
2022-08-30T22:42:50.540Z,100.00
2022-08-30T22:45:18.825Z,100.00
2022-08-30T22:47:47.075Z,100.00
2022-08-30T22:50:15.313Z,100.00
2022-08-30T22:52:43.357Z,100.00
2022-08-30T22:55:12.867Z,100.00
2022-08-30T22:57:41.723Z,100.00
2022-08-30T23:00:15.086Z,100.00
2022-08-30T23:02:44.349Z,100.00
2022-08-30T23:05:13.581Z,100.00
2022-08-30T23:07:42.233Z,100.00
2022-08-30T23:10:13.292Z,100.00
2022-08-30T23:12:41.691Z,100.00
2022-08-30T23:15:12.295Z,100.00
2022-08-30T23:17:40.318Z,100.00
2022-08-30T23:20:09.413Z,100.00
2022-08-30T23:22:37.453Z,100.00
2022-08-30T23:25:24.278Z,100.00
2022-08-30T23:28:12.283Z,100.00
2022-08-30T23:31:06.627Z,100.00
2022-08-30T23:33:52.248Z,100.00
2022-08-30T23:36:37.933Z,100.00
2022-08-30T23:39:23.605Z,100.00
2022-08-30T23:42:09.285Z,100.00
2022-08-30T23:44:56.278Z,100.00
2022-08-30T23:47:41.866Z,100.00
2022-08-30T23:50:27.340Z,100.00
2022-08-30T23:53:13.070Z,100.00
2022-08-30T23:55:59.130Z,100.00
2022-08-30T23:58:44.703Z,100.00
